« Back
NWS Peachtree City, Ga » Text Product » CSG Terminal Aerodrome Forecast


Printer-friendly Version
Current Version              Previous Versions:   1  2  3  4  5  6  7  8  9  

Terminal Aerodrome Forecast

960
FTUS42 KFFC 261008 AAA
TAFCSG
TAF AMD
KCSG 261008Z 2610/2706 12003KT P6SM FEW100
     FM261400 14006KT P6SM FEW035
     FM261800 16007KT P6SM VCSH SCT045 PROB30 2623/2703 6SM -TSRA
      OVC035CB
     FM270400 21002KT 6SM BR VCSH BKN050 BKN100=



USA.gov is the U.S. government's official web portal to all federal, state and local government web resources and services.